sensor_id;sensor_type;location;lat;lon;timestamp;pressure;altitude;pressure_sealevel;temperature;humidity
75543;BME280;64129;53.508;10.476;2023-07-29T00:00:02;100248.19;;;18.25;96.48
75543;BME280;64129;53.508;10.476;2023-07-29T00:02:37;100249.53;;;18.32;95.49
75543;BME280;64129;53.508;10.476;2023-07-29T00:05:04;100255.88;;;18.31;96.56
75543;BME280;64129;53.508;10.476;2023-07-29T00:07:31;100253.28;;;18.30;97.19
75543;BME280;64129;53.508;10.476;2023-07-29T00:09:57;100248.66;;;18.32;95.62
75543;BME280;64129;53.508;10.476;2023-07-29T00:12:25;100249.84;;;18.28;97.35
75543;BME280;64129;53.508;10.476;2023-07-29T00:14:51;100242.72;;;18.27;96.80
75543;BME280;64129;53.508;10.476;2023-07-29T00:17:18;100241.88;;;18.41;96.59
75543;BME280;64129;53.508;10.476;2023-07-29T00:19:46;100227.25;;;18.45;95.99
75543;BME280;64129;53.508;10.476;2023-07-29T00:22:13;100226.41;;;18.44;95.09
75543;BME280;64129;53.508;10.476;2023-07-29T00:24:40;100220.16;;;18.44;95.46
75543;BME280;64129;53.508;10.476;2023-07-29T00:27:07;100223.31;;;18.36;95.30
75543;BME280;64129;53.508;10.476;2023-07-29T00:29:33;100222.09;;;18.42;94.35
75543;BME280;64129;53.508;10.476;2023-07-29T00:32:00;100214.41;;;18.21;95.25
75543;BME280;64129;53.508;10.476;2023-07-29T00:34:26;100214.25;;;18.10;95.34
75543;BME280;64129;53.508;10.476;2023-07-29T00:36:53;100210.66;;;18.24;95.02
75543;BME280;64129;53.508;10.476;2023-07-29T00:39:19;100209.25;;;18.18;94.66
75543;BME280;64129;53.508;10.476;2023-07-29T00:41:46;100211.16;;;18.16;94.93
75543;BME280;64129;53.508;10.476;2023-07-29T00:44:13;100200.78;;;18.24;94.66
75543;BME280;64129;53.508;10.476;2023-07-29T00:46:40;100204.06;;;18.15;94.44
75543;BME280;64129;53.508;10.476;2023-07-29T00:49:07;100206.19;;;18.10;94.50
75543;BME280;64129;53.508;10.476;2023-07-29T00:51:34;100207.69;;;18.14;94.68
75543;BME280;64129;53.508;10.476;2023-07-29T00:54:01;100200.97;;;18.21;94.07
75543;BME280;64129;53.508;10.476;2023-07-29T00:56:28;100197.72;;;18.16;94.70
75543;BME280;64129;53.508;10.476;2023-07-29T00:58:54;100195.69;;;18.20;94.78
75543;BME280;64129;53.508;10.476;2023-07-29T01:01:26;100190.91;;;18.11;95.34
75543;BME280;64129;53.508;10.476;2023-07-29T01:03:52;100190.81;;;17.98;97.27
75543;BME280;64129;53.508;10.476;2023-07-29T01:09:44;100172.19;;;18.09;97.22
75543;BME280;64129;53.508;10.476;2023-07-29T01:12:37;100168.75;;;18.07;97.16
75543;BME280;64129;53.508;10.476;2023-07-29T01:15:25;100169.81;;;18.04;98.69
75543;BME280;64129;53.508;10.476;2023-07-29T01:18:03;100167.03;;;18.06;98.61
75543;BME280;64129;53.508;10.476;2023-07-29T01:20:33;100164.25;;;18.07;97.97
75543;BME280;64129;53.508;10.476;2023-07-29T01:23:00;100166.72;;;18.11;97.53
75543;BME280;64129;53.508;10.476;2023-07-29T01:25:26;100161.81;;;18.17;95.71
75543;BME280;64129;53.508;10.476;2023-07-29T01:27:53;100166.81;;;18.09;96.47
75543;BME280;64129;53.508;10.476;2023-07-29T01:30:26;100162.78;;;18.16;95.76
75543;BME280;64129;53.508;10.476;2023-07-29T01:32:59;100152.22;;;18.13;91.61
75543;BME280;64129;53.508;10.476;2023-07-29T01:35:44;100157.22;;;18.05;97.19
75543;BME280;64129;53.508;10.476;2023-07-29T01:38:33;100154.91;;;17.99;97.71
75543;BME280;64129;53.508;10.476;2023-07-29T01:41:02;100146.75;;;18.00;97.52
75543;BME280;64129;53.508;10.476;2023-07-29T01:43:31;100143.69;;;18.06;97.44
75543;BME280;64129;53.508;10.476;2023-07-29T01:45:58;100149.84;;;18.08;96.14
75543;BME280;64129;53.508;10.476;2023-07-29T01:48:24;100156.72;;;17.98;95.31
75543;BME280;64129;53.508;10.476;2023-07-29T01:50:51;100156.44;;;18.03;97.87
75543;BME280;64129;53.508;10.476;2023-07-29T01:53:17;100143.59;;;18.08;95.81
75543;BME280;64129;53.508;10.476;2023-07-29T01:55:44;100151.47;;;17.97;98.54
75543;BME280;64129;53.508;10.476;2023-07-29T01:58:11;100145.88;;;18.00;98.13
75543;BME280;64129;53.508;10.476;2023-07-29T02:00:38;100137.47;;;18.06;95.78
75543;BME280;64129;53.508;10.476;2023-07-29T02:03:06;100138.22;;;17.94;98.95
75543;BME280;64129;53.508;10.476;2023-07-29T02:05:33;100133.59;;;17.96;98.07
75543;BME280;64129;53.508;10.476;2023-07-29T02:07:59;100133.41;;;18.13;96.12
75543;BME280;64129;53.508;10.476;2023-07-29T02:10:26;100128.03;;;17.99;99.36
75543;BME280;64129;53.508;10.476;2023-07-29T02:12:53;100119.22;;;18.11;96.60
75543;BME280;64129;53.508;10.476;2023-07-29T02:15:19;100122.84;;;18.10;95.78
75543;BME280;64129;53.508;10.476;2023-07-29T02:17:46;100127.28;;;18.11;98.95
75543;BME280;64129;53.508;10.476;2023-07-29T02:20:13;100120.56;;;18.04;99.18
75543;BME280;64129;53.508;10.476;2023-07-29T02:22:39;100121.59;;;18.01;98.56
75543;BME280;64129;53.508;10.476;2023-07-29T02:25:06;100115.19;;;18.04;99.65
75543;BME280;64129;53.508;10.476;2023-07-29T02:27:33;100118.66;;;18.06;99.84
75543;BME280;64129;53.508;10.476;2023-07-29T02:29:59;100118.44;;;18.09;99.46
75543;BME280;64129;53.508;10.476;2023-07-29T02:32:26;100125.44;;;18.12;100.00
75543;BME280;64129;53.508;10.476;2023-07-29T02:34:53;100130.72;;;18.13;99.50
75543;BME280;64129;53.508;10.476;2023-07-29T02:37:19;100143.84;;;18.18;99.21
75543;BME280;64129;53.508;10.476;2023-07-29T02:39:46;100137.63;;;18.17;99.49
75543;BME280;64129;53.508;10.476;2023-07-29T02:42:12;100136.28;;;18.10;99.92
75543;BME280;64129;53.508;10.476;2023-07-29T02:44:40;100140.59;;;18.13;100.00
75543;BME280;64129;53.508;10.476;2023-07-29T02:47:06;100152.59;;;18.21;100.00
75543;BME280;64129;53.508;10.476;2023-07-29T02:49:33;100145.09;;;18.26;99.21
75543;BME280;64129;53.508;10.476;2023-07-29T02:51:59;100137.22;;;18.23;100.00
75543;BME280;64129;53.508;10.476;2023-07-29T02:54:26;100133.63;;;18.37;98.96
75543;BME280;64129;53.508;10.476;2023-07-29T02:56:53;100128.00;;;18.27;98.61
75543;BME280;64129;53.508;10.476;2023-07-29T02:59:19;100130.31;;;18.19;97.65
75543;BME280;64129;53.508;10.476;2023-07-29T03:01:46;100131.09;;;18.21;99.00
75543;BME280;64129;53.508;10.476;2023-07-29T03:04:13;100122.81;;;18.24;98.92
75543;BME280;64129;53.508;10.476;2023-07-29T03:06:39;100128.38;;;18.21;95.37
75543;BME280;64129;53.508;10.476;2023-07-29T03:09:06;100120.63;;;18.17;98.45
75543;BME280;64129;53.508;10.476;2023-07-29T03:11:33;100119.50;;;18.33;95.22
75543;BME280;64129;53.508;10.476;2023-07-29T03:13:59;100114.41;;;18.16;98.71
75543;BME280;64129;53.508;10.476;2023-07-29T03:16:28;100114.59;;;18.13;96.97
75543;BME280;64129;53.508;10.476;2023-07-29T03:18:56;100112.66;;;18.15;98.37
75543;BME280;64129;53.508;10.476;2023-07-29T03:21:24;100106.63;;;18.12;99.09
75543;BME280;64129;53.508;10.476;2023-07-29T03:23:50;100110.75;;;18.17;97.04
75543;BME280;64129;53.508;10.476;2023-07-29T03:26:17;100121.03;;;18.11;99.28
75543;BME280;64129;53.508;10.476;2023-07-29T03:28:43;100122.34;;;18.18;98.55
75543;BME280;64129;53.508;10.476;2023-07-29T03:31:11;100125.53;;;18.10;99.76
75543;BME280;64129;53.508;10.476;2023-07-29T03:33:38;100140.22;;;18.19;98.95
75543;BME280;64129;53.508;10.476;2023-07-29T03:36:04;100134.44;;;18.25;96.79
75543;BME280;64129;53.508;10.476;2023-07-29T03:38:31;100138.84;;;18.26;98.30
75543;BME280;64129;53.508;10.476;2023-07-29T03:40:59;100133.00;;;18.19;99.20
75543;BME280;64129;53.508;10.476;2023-07-29T03:43:26;100131.84;;;18.23;99.53
75543;BME280;64129;53.508;10.476;2023-07-29T03:45:54;100132.16;;;18.19;99.57
75543;BME280;64129;53.508;10.476;2023-07-29T03:48:21;100128.59;;;18.18;98.95
75543;BME280;64129;53.508;10.476;2023-07-29T03:50:48;100137.81;;;18.14;99.90
75543;BME280;64129;53.508;10.476;2023-07-29T03:53:14;100131.28;;;18.18;99.29
75543;BME280;64129;53.508;10.476;2023-07-29T03:55:41;100128.91;;;18.14;99.71
75543;BME280;64129;53.508;10.476;2023-07-29T03:58:09;100128.94;;;18.26;99.60
75543;BME280;64129;53.508;10.476;2023-07-29T04:00:36;100134.94;;;18.03;100.00
75543;BME280;64129;53.508;10.476;2023-07-29T04:03:02;100130.31;;;18.19;99.30
75543;BME280;64129;53.508;10.476;2023-07-29T04:05:29;100123.22;;;18.18;98.71
75543;BME280;64129;53.508;10.476;2023-07-29T04:07:55;100125.25;;;18.15;99.79
75543;BME280;64129;53.508;10.476;2023-07-29T04:10:22;100121.50;;;18.17;97.56
75543;BME280;64129;53.508;10.476;2023-07-29T04:12:49;100121.91;;;18.11;97.06
75543;BME280;64129;53.508;10.476;2023-07-29T04:15:15;100117.28;;;18.13;100.00
75543;BME280;64129;53.508;10.476;2023-07-29T04:17:42;100126.47;;;18.23;100.00
75543;BME280;64129;53.508;10.476;2023-07-29T04:20:10;100114.84;;;18.23;98.24
75543;BME280;64129;53.508;10.476;2023-07-29T04:22:36;100111.16;;;18.11;100.00
75543;BME280;64129;53.508;10.476;2023-07-29T04:25:04;100102.31;;;18.09;100.00
75543;BME280;64129;53.508;10.476;2023-07-29T04:27:31;100097.25;;;18.04;100.00
75543;BME280;64129;53.508;10.476;2023-07-29T04:29:58;100103.84;;;18.13;100.00
75543;BME280;64129;53.508;10.476;2023-07-29T04:32:24;100102.28;;;18.23;100.00
75543;BME280;64129;53.508;10.476;2023-07-29T04:34:52;100112.72;;;18.28;100.00
75543;BME280;64129;53.508;10.476;2023-07-29T04:37:18;100104.75;;;18.26;100.00
75543;BME280;64129;53.508;10.476;2023-07-29T04:39:45;100111.66;;;18.30;100.00
75543;BME280;64129;53.508;10.476;2023-07-29T04:42:13;100105.16;;;18.20;100.00
75543;BME280;64129;53.508;10.476;2023-07-29T04:44:39;100109.16;;;18.27;100.00
75543;BME280;64129;53.508;10.476;2023-07-29T04:47:08;100115.63;;;18.25;100.00
75543;BME280;64129;53.508;10.476;2023-07-29T04:49:34;100115.72;;;18.23;100.00
75543;BME280;64129;53.508;10.476;2023-07-29T04:52:01;100113.47;;;18.30;100.00
75543;BME280;64129;53.508;10.476;2023-07-29T04:54:27;100107.25;;;18.29;100.00
75543;BME280;64129;53.508;10.476;2023-07-29T04:56:54;100113.75;;;18.39;100.00
75543;BME280;64129;53.508;10.476;2023-07-29T04:59:21;100120.13;;;18.24;100.00
75543;BME280;64129;53.508;10.476;2023-07-29T05:01:47;100108.00;;;18.31;99.44
75543;BME280;64129;53.508;10.476;2023-07-29T05:04:15;100113.03;;;18.23;100.00
75543;BME280;64129;53.508;10.476;2023-07-29T05:06:41;100110.13;;;18.26;99.84
75543;BME280;64129;53.508;10.476;2023-07-29T05:09:15;100100.59;;;18.35;98.27
75543;BME280;64129;53.508;10.476;2023-07-29T05:11:42;100093.19;;;18.38;99.82
75543;BME280;64129;53.508;10.476;2023-07-29T05:14:12;100098.38;;;18.42;100.00
75543;BME280;64129;53.508;10.476;2023-07-29T05:16:39;100099.06;;;18.58;98.89
75543;BME280;64129;53.508;10.476;2023-07-29T05:19:05;100104.31;;;18.47;98.92
75543;BME280;64129;53.508;10.476;2023-07-29T05:21:32;100104.88;;;18.52;99.23
75543;BME280;64129;53.508;10.476;2023-07-29T05:23:59;100104.84;;;18.66;96.94
75543;BME280;64129;53.508;10.476;2023-07-29T05:26:26;100099.50;;;18.52;99.48
75543;BME280;64129;53.508;10.476;2023-07-29T05:28:52;100106.75;;;18.64;97.78
75543;BME280;64129;53.508;10.476;2023-07-29T05:31:19;100104.06;;;18.64;98.32
75543;BME280;64129;53.508;10.476;2023-07-29T05:33:47;100099.84;;;18.60;97.81
75543;BME280;64129;53.508;10.476;2023-07-29T05:36:14;100103.38;;;18.60;98.79
75543;BME280;64129;53.508;10.476;2023-07-29T05:38:41;100101.19;;;18.67;98.07
75543;BME280;64129;53.508;10.476;2023-07-29T05:41:08;100097.47;;;18.55;97.84
75543;BME280;64129;53.508;10.476;2023-07-29T05:43:35;100089.06;;;18.74;96.54
75543;BME280;64129;53.508;10.476;2023-07-29T05:46:01;100100.53;;;18.63;98.21
75543;BME280;64129;53.508;10.476;2023-07-29T05:48:28;100096.34;;;18.72;97.03
75543;BME280;64129;53.508;10.476;2023-07-29T05:50:54;100098.31;;;18.83;96.69
75543;BME280;64129;53.508;10.476;2023-07-29T05:53:21;100099.84;;;18.87;96.92
75543;BME280;64129;53.508;10.476;2023-07-29T05:55:48;100101.34;;;18.78;96.84
75543;BME280;64129;53.508;10.476;2023-07-29T05:58:15;100100.56;;;18.76;96.43
75543;BME280;64129;53.508;10.476;2023-07-29T06:00:41;100091.66;;;18.88;96.21
75543;BME280;64129;53.508;10.476;2023-07-29T06:03:08;100093.94;;;19.07;94.16
75543;BME280;64129;53.508;10.476;2023-07-29T06:05:35;100093.22;;;19.18;93.08
75543;BME280;64129;53.508;10.476;2023-07-29T06:08:02;100093.44;;;19.15;93.57
75543;BME280;64129;53.508;10.476;2023-07-29T06:10:28;100083.28;;;19.31;93.20
75543;BME280;64129;53.508;10.476;2023-07-29T06:12:55;100094.72;;;19.22;94.28
75543;BME280;64129;53.508;10.476;2023-07-29T06:15:22;100093.75;;;19.23;93.48
75543;BME280;64129;53.508;10.476;2023-07-29T06:17:49;100093.84;;;19.34;92.83
75543;BME280;64129;53.508;10.476;2023-07-29T06:20:16;100087.81;;;19.30;93.50
75543;BME280;64129;53.508;10.476;2023-07-29T06:22:43;100090.09;;;19.49;92.85
75543;BME280;64129;53.508;10.476;2023-07-29T06:25:09;100087.00;;;19.55;91.60
75543;BME280;64129;53.508;10.476;2023-07-29T06:27:37;100085.06;;;19.57;91.66
75543;BME280;64129;53.508;10.476;2023-07-29T06:30:04;100087.59;;;19.72;91.03
75543;BME280;64129;53.508;10.476;2023-07-29T06:32:31;100089.78;;;19.67;90.74
75543;BME280;64129;53.508;10.476;2023-07-29T06:34:58;100084.97;;;19.96;89.89
75543;BME280;64129;53.508;10.476;2023-07-29T06:37:25;100082.81;;;20.01;88.37
75543;BME280;64129;53.508;10.476;2023-07-29T06:39:51;100077.69;;;20.09;88.70
75543;BME280;64129;53.508;10.476;2023-07-29T06:42:18;100082.31;;;20.19;87.23
75543;BME280;64129;53.508;10.476;2023-07-29T06:44:44;100086.69;;;20.33;87.21
75543;BME280;64129;53.508;10.476;2023-07-29T06:47:12;100086.22;;;20.15;87.50
75543;BME280;64129;53.508;10.476;2023-07-29T06:49:38;100091.88;;;20.60;87.02
75543;BME280;64129;53.508;10.476;2023-07-29T06:52:05;100099.31;;;20.33;87.16
75543;BME280;64129;53.508;10.476;2023-07-29T06:54:32;100094.84;;;20.20;88.01
75543;BME280;64129;53.508;10.476;2023-07-29T06:56:58;100082.38;;;20.31;87.41
75543;BME280;64129;53.508;10.476;2023-07-29T06:59:25;100094.22;;;20.41;87.50
75543;BME280;64129;53.508;10.476;2023-07-29T07:01:52;100086.63;;;20.22;88.45
75543;BME280;64129;53.508;10.476;2023-07-29T07:04:19;100079.97;;;20.39;87.73
75543;BME280;64129;53.508;10.476;2023-07-29T07:06:45;100082.31;;;20.56;87.53
75543;BME280;64129;53.508;10.476;2023-07-29T07:09:12;100082.66;;;20.51;87.20
75543;BME280;64129;53.508;10.476;2023-07-29T07:11:38;100088.44;;;20.82;86.11
75543;BME280;64129;53.508;10.476;2023-07-29T07:14:05;100083.28;;;20.90;85.97
75543;BME280;64129;53.508;10.476;2023-07-29T07:16:31;100086.66;;;20.70;85.32
75543;BME280;64129;53.508;10.476;2023-07-29T07:18:58;100079.28;;;21.07;85.04
75543;BME280;64129;53.508;10.476;2023-07-29T07:21:25;100075.09;;;21.03;84.81
75543;BME280;64129;53.508;10.476;2023-07-29T07:23:51;100075.22;;;21.01;85.25
75543;BME280;64129;53.508;10.476;2023-07-29T07:26:18;100079.91;;;21.10;85.33
75543;BME280;64129;53.508;10.476;2023-07-29T07:28:44;100090.31;;;21.04;84.92
75543;BME280;64129;53.508;10.476;2023-07-29T07:31:11;100081.13;;;21.06;84.41
75543;BME280;64129;53.508;10.476;2023-07-29T07:33:37;100086.50;;;21.06;84.06
75543;BME280;64129;53.508;10.476;2023-07-29T07:36:04;100087.50;;;21.05;84.41
75543;BME280;64129;53.508;10.476;2023-07-29T07:38:31;100087.75;;;21.13;83.36
75543;BME280;64129;53.508;10.476;2023-07-29T07:40:57;100091.03;;;20.95;83.76
75543;BME280;64129;53.508;10.476;2023-07-29T07:43:24;100088.84;;;21.11;83.89
75543;BME280;64129;53.508;10.476;2023-07-29T07:45:56;100088.16;;;21.20;83.37
75543;BME280;64129;53.508;10.476;2023-07-29T07:48:23;100072.66;;;21.11;84.23
75543;BME280;64129;53.508;10.476;2023-07-29T07:50:50;100077.81;;;21.14;82.77
75543;BME280;64129;53.508;10.476;2023-07-29T07:53:17;100077.44;;;21.07;83.10
75543;BME280;64129;53.508;10.476;2023-07-29T07:55:43;100086.50;;;20.95;83.86
75543;BME280;64129;53.508;10.476;2023-07-29T07:58:10;100076.44;;;20.97;83.68
75543;BME280;64129;53.508;10.476;2023-07-29T08:00:36;100076.19;;;21.00;83.28
75543;BME280;64129;53.508;10.476;2023-07-29T08:03:03;100080.38;;;21.04;83.46
75543;BME280;64129;53.508;10.476;2023-07-29T08:05:30;100079.53;;;21.15;82.57
75543;BME280;64129;53.508;10.476;2023-07-29T08:07:56;100075.19;;;21.36;82.83
75543;BME280;64129;53.508;10.476;2023-07-29T08:10:24;100070.78;;;21.35;82.73
75543;BME280;64129;53.508;10.476;2023-07-29T08:12:50;100080.47;;;21.27;82.85
75543;BME280;64129;53.508;10.476;2023-07-29T08:15:17;100079.72;;;21.25;82.32
75543;BME280;64129;53.508;10.476;2023-07-29T08:17:45;100079.59;;;21.26;82.69
75543;BME280;64129;53.508;10.476;2023-07-29T08:20:12;100076.06;;;21.37;81.47
75543;BME280;64129;53.508;10.476;2023-07-29T08:22:39;100077.16;;;21.34;80.16
75543;BME280;64129;53.508;10.476;2023-07-29T08:25:05;100072.00;;;21.31;78.80
75543;BME280;64129;53.508;10.476;2023-07-29T08:27:33;100071.78;;;21.57;78.61
75543;BME280;64129;53.508;10.476;2023-07-29T08:30:00;100068.91;;;22.03;77.79
75543;BME280;64129;53.508;10.476;2023-07-29T08:32:27;100063.72;;;22.33;77.07
75543;BME280;64129;53.508;10.476;2023-07-29T08:34:53;100068.78;;;22.27;76.14
75543;BME280;64129;53.508;10.476;2023-07-29T08:37:20;100067.09;;;22.47;74.82
75543;BME280;64129;53.508;10.476;2023-07-29T08:39:47;100071.13;;;22.52;74.64
75543;BME280;64129;53.508;10.476;2023-07-29T08:42:14;100073.63;;;22.76;75.46
75543;BME280;64129;53.508;10.476;2023-07-29T08:44:43;100076.19;;;22.78;74.57
75543;BME280;64129;53.508;10.476;2023-07-29T08:47:11;100061.59;;;22.37;75.49
75543;BME280;64129;53.508;10.476;2023-07-29T08:49:40;100067.06;;;22.26;75.97
75543;BME280;64129;53.508;10.476;2023-07-29T08:52:08;100062.13;;;22.20;76.76
75543;BME280;64129;53.508;10.476;2023-07-29T08:54:36;100064.63;;;21.89;77.34
75543;BME280;64129;53.508;10.476;2023-07-29T08:57:03;100063.50;;;22.03;76.64
75543;BME280;64129;53.508;10.476;2023-07-29T08:59:30;100060.91;;;22.24;76.13
75543;BME280;64129;53.508;10.476;2023-07-29T09:01:58;100056.53;;;22.44;75.60
75543;BME280;64129;53.508;10.476;2023-07-29T09:04:25;100058.59;;;22.51;75.30
75543;BME280;64129;53.508;10.476;2023-07-29T09:06:53;100056.13;;;22.59;73.64
75543;BME280;64129;53.508;10.476;2023-07-29T09:09:20;100049.00;;;22.58;73.58
75543;BME280;64129;53.508;10.476;2023-07-29T09:11:48;100047.41;;;22.56;75.38
75543;BME280;64129;53.508;10.476;2023-07-29T09:14:14;100053.78;;;22.23;75.30
75543;BME280;64129;53.508;10.476;2023-07-29T09:16:41;100051.25;;;21.76;76.62
75543;BME280;64129;53.508;10.476;2023-07-29T09:19:08;100048.91;;;21.94;76.67
75543;BME280;64129;53.508;10.476;2023-07-29T09:21:38;100049.41;;;21.77;76.51
75543;BME280;64129;53.508;10.476;2023-07-29T09:24:05;100058.72;;;21.84;76.88
75543;BME280;64129;53.508;10.476;2023-07-29T09:26:34;100047.41;;;22.13;76.09
75543;BME280;64129;53.508;10.476;2023-07-29T09:29:01;100056.06;;;22.38;75.13
75543;BME280;64129;53.508;10.476;2023-07-29T09:31:28;100065.44;;;22.34;74.52
75543;BME280;64129;53.508;10.476;2023-07-29T09:34:00;100053.63;;;22.67;74.80
75543;BME280;64129;53.508;10.476;2023-07-29T09:36:27;100055.59;;;22.33;74.16
75543;BME280;64129;53.508;10.476;2023-07-29T09:38:54;100055.00;;;22.30;75.69
75543;BME280;64129;53.508;10.476;2023-07-29T09:41:25;100049.66;;;22.71;74.11
75543;BME280;64129;53.508;10.476;2023-07-29T09:43:57;100035.91;;;22.63;72.11
75543;BME280;64129;53.508;10.476;2023-07-29T09:46:25;100036.06;;;22.83;70.46
75543;BME280;64129;53.508;10.476;2023-07-29T09:48:53;100050.06;;;22.88;71.64
75543;BME280;64129;53.508;10.476;2023-07-29T09:51:22;100037.03;;;22.93;72.15
75543;BME280;64129;53.508;10.476;2023-07-29T09:53:50;100038.66;;;22.84;71.88
75543;BME280;64129;53.508;10.476;2023-07-29T09:56:17;100046.59;;;22.97;71.27
75543;BME280;64129;53.508;10.476;2023-07-29T09:58:45;100040.56;;;23.14;71.88
75543;BME280;64129;53.508;10.476;2023-07-29T10:01:14;100048.47;;;22.64;69.45
75543;BME280;64129;53.508;10.476;2023-07-29T10:03:42;100047.50;;;22.86;70.20
75543;BME280;64129;53.508;10.476;2023-07-29T10:06:08;100042.94;;;22.87;71.35
75543;BME280;64129;53.508;10.476;2023-07-29T10:08:35;100049.31;;;22.65;70.55
75543;BME280;64129;53.508;10.476;2023-07-29T10:11:02;100049.50;;;22.84;69.66
75543;BME280;64129;53.508;10.476;2023-07-29T10:13:28;100043.72;;;22.78;69.74
75543;BME280;64129;53.508;10.476;2023-07-29T10:15:55;100045.41;;;22.90;70.51
75543;BME280;64129;53.508;10.476;2023-07-29T10:18:23;100052.81;;;22.77;69.76
75543;BME280;64129;53.508;10.476;2023-07-29T10:20:50;100057.75;;;22.83;69.45
75543;BME280;64129;53.508;10.476;2023-07-29T10:23:22;100050.44;;;22.62;69.80
75543;BME280;64129;53.508;10.476;2023-07-29T10:26:00;100046.50;;;22.87;69.05
75543;BME280;64129;53.508;10.476;2023-07-29T10:28:30;100053.25;;;23.34;67.06
75543;BME280;64129;53.508;10.476;2023-07-29T10:30:58;100047.19;;;23.52;67.59
75543;BME280;64129;53.508;10.476;2023-07-29T10:33:25;100044.09;;;23.56;67.05
75543;BME280;64129;53.508;10.476;2023-07-29T10:35:55;100048.03;;;23.73;67.00
75543;BME280;64129;53.508;10.476;2023-07-29T10:38:23;100032.75;;;23.72;66.86
75543;BME280;64129;53.508;10.476;2023-07-29T10:40:53;100036.56;;;23.60;66.27
75543;BME280;64129;53.508;10.476;2023-07-29T10:48:43;100045.16;;;23.65;66.86
75543;BME280;64129;53.508;10.476;2023-07-29T10:51:26;100034.59;;;23.72;65.64
75543;BME280;64129;53.508;10.476;2023-07-29T10:53:58;100034.56;;;23.62;65.78
75543;BME280;64129;53.508;10.476;2023-07-29T10:56:33;100036.69;;;23.99;64.02
75543;BME280;64129;53.508;10.476;2023-07-29T10:59:30;100032.66;;;24.33;62.26
75543;BME280;64129;53.508;10.476;2023-07-29T11:01:58;100021.56;;;24.15;65.30
75543;BME280;64129;53.508;10.476;2023-07-29T11:04:28;100023.78;;;23.81;63.83
75543;BME280;64129;53.508;10.476;2023-07-29T11:10:00;100032.34;;;24.36;61.90
75543;BME280;64129;53.508;10.476;2023-07-29T11:17:40;100023.78;;;24.70;62.27
75543;BME280;64129;53.508;10.476;2023-07-29T11:20:07;100016.75;;;24.57;60.85
75543;BME280;64129;53.508;10.476;2023-07-29T11:22:35;100017.34;;;24.32;61.01
75543;BME280;64129;53.508;10.476;2023-07-29T11:25:02;100018.06;;;24.34;61.68
75543;BME280;64129;53.508;10.476;2023-07-29T11:27:29;100027.28;;;24.22;61.04
75543;BME280;64129;53.508;10.476;2023-07-29T11:30:00;100021.78;;;24.43;60.34
75543;BME280;64129;53.508;10.476;2023-07-29T11:32:27;100016.31;;;24.81;61.04
75543;BME280;64129;53.508;10.476;2023-07-29T11:34:54;100015.19;;;24.84;60.90
75543;BME280;64129;53.508;10.476;2023-07-29T11:37:20;100017.06;;;24.54;59.93
75543;BME280;64129;53.508;10.476;2023-07-29T11:39:48;100008.31;;;24.80;60.77
75543;BME280;64129;53.508;10.476;2023-07-29T11:42:14;100011.75;;;24.82;60.38
75543;BME280;64129;53.508;10.476;2023-07-29T11:44:41;100015.34;;;24.53;59.47
75543;BME280;64129;53.508;10.476;2023-07-29T11:47:09;100008.22;;;24.33;59.85
75543;BME280;64129;53.508;10.476;2023-07-29T11:49:38;100011.28;;;25.15;59.43
75543;BME280;64129;53.508;10.476;2023-07-29T11:52:10;100012.69;;;25.19;58.75
75543;BME280;64129;53.508;10.476;2023-07-29T11:54:37;100019.63;;;25.04;59.34
75543;BME280;64129;53.508;10.476;2023-07-29T11:57:08;100021.63;;;25.02;60.49
75543;BME280;64129;53.508;10.476;2023-07-29T11:59:36;100019.31;;;24.88;59.32
75543;BME280;64129;53.508;10.476;2023-07-29T12:02:23;100026.06;;;24.36;60.11
75543;BME280;64129;53.508;10.476;2023-07-29T12:04:51;100020.41;;;23.99;60.75
75543;BME280;64129;53.508;10.476;2023-07-29T12:07:18;100031.34;;;24.37;61.41
75543;BME280;64129;53.508;10.476;2023-07-29T12:09:46;100031.66;;;24.34;60.24
75543;BME280;64129;53.508;10.476;2023-07-29T12:12:12;100033.66;;;24.32;59.94
75543;BME280;64129;53.508;10.476;2023-07-29T12:14:46;100028.50;;;24.39;60.35
75543;BME280;64129;53.508;10.476;2023-07-29T12:17:15;100022.44;;;25.59;58.70
75543;BME280;64129;53.508;10.476;2023-07-29T12:19:42;100014.06;;;25.43;56.95
75543;BME280;64129;53.508;10.476;2023-07-29T12:22:09;100017.13;;;25.58;56.70
75543;BME280;64129;53.508;10.476;2023-07-29T12:24:38;100014.34;;;26.04;54.17
75543;BME280;64129;53.508;10.476;2023-07-29T12:27:09;100023.53;;;26.49;54.08
75543;BME280;64129;53.508;10.476;2023-07-29T12:29:40;100018.69;;;26.78;53.57
75543;BME280;64129;53.508;10.476;2023-07-29T12:32:07;100023.34;;;26.68;53.39
75543;BME280;64129;53.508;10.476;2023-07-29T12:34:36;100027.28;;;25.18;53.77
75543;BME280;64129;53.508;10.476;2023-07-29T12:37:03;100019.25;;;25.27;55.03
75543;BME280;64129;53.508;10.476;2023-07-29T12:39:35;100009.25;;;25.27;55.38
75543;BME280;64129;53.508;10.476;2023-07-29T12:42:06;100012.63;;;24.73;56.50
75543;BME280;64129;53.508;10.476;2023-07-29T12:44:34;100013.34;;;24.75;56.26
75543;BME280;64129;53.508;10.476;2023-07-29T12:47:03;100020.91;;;24.81;56.63
75543;BME280;64129;53.508;10.476;2023-07-29T12:49:30;100012.03;;;24.88;59.28
75543;BME280;64129;53.508;10.476;2023-07-29T12:51:58;100018.78;;;24.55;58.20
75543;BME280;64129;53.508;10.476;2023-07-29T12:54:25;100017.34;;;24.32;57.72
75543;BME280;64129;53.508;10.476;2023-07-29T12:56:51;100027.00;;;25.22;56.68